Foochow — 9V2175 — position and weather

sailwx.info

Track history (hours):
 
Tides and Currents Weather Stations Pressure Air Temp Water Temp Dewpoint Dewpoint Depression Visibility Wind Speed Wind Dir Waves Ship Positions

Foochow

Last reported at 2018-Jun-17 02:47 UTC. Time now 2018-Jun-18 00:21 UTC.
Position S 34°04' E 151°32'.

Length 180 m; draft 9 m.

Type: Cargo ship. MMSI: 563217000.

Date/timePositionNaut miles runAvg speedWind from/ knotsBaromVisibWave heightAir tempDewpointWater temp
2018-Jun-17 02:47S 34°04' E 151°32'312.0
2018-Jun-17 02:30S 34°01' E 151°33'611.8
2018-Jun-17 02:00S 33°55' E 151°34'612.4
2018-Jun-17 01:30S 33°49' E 151°36'712.4
2018-Jun-17 00:59S 33°43' E 151°38'612.2
2018-Jun-17 00:30S 33°37' E 151°39'4012.1
2018-Jun-16 21:10S 32°58' E 151°51'210.8
2018-Jun-16 21:00S 32°56' E 151°50'3 5.1
2018-Jun-16 20:30S 32°55' E 151°47'2 0.1
2018-Jun-15 22:09S 32°53' E 151°46'0 0.8
2018-Jun-15 22:00S 32°53' E 151°46'2 4.0
2018-Jun-15 21:30S 32°55' E 151°47'3 6.7
2018-Jun-15 21:00S 32°56' E 151°51'3 5.4
2018-Jun-15 20:30S 32°59' E 151°51'2 3.0
2018-Jun-15 19:50S 33°01' E 151°49'3 0.9
2018-Jun-15 17:01S 33°02' E 151°47'0 0.0
2018-Jun-15 16:58S 33°02' E 151°47'0 0.0
2018-Jun-15 16:07S 33°02' E 151°47'0 0.0
2018-Jun-15 15:49S 33°02' E 151°47'0 0.0
2018-Jun-15 14:19S 33°02' E 151°47'0 0.0
2018-Jun-15 13:22S 33°02' E 151°47'0 0.0
2018-Jun-15 12:58S 33°02' E 151°47'0 0.0
2018-Jun-15 08:49S 33°02' E 151°47'0 0.0
2018-Jun-15 07:31S 33°02' E 151°47'0 0.1
2018-Jun-15 07:25S 33°02' E 151°47'0 0.0
2018-Jun-15 06:55S 33°02' E 151°47'0 0.0
2018-Jun-15 05:55S 33°02' E 151°47'0 0.0
2018-Jun-15 05:25S 33°02' E 151°47'0 0.0
2018-Jun-15 04:55S 33°02' E 151°47'0 0.0
2018-Jun-15 04:28S 33°02' E 151°47'0 0.0
2018-Jun-14 17:34S 33°02' E 151°47'0 0.0
2018-Jun-14 17:22S 33°02' E 151°47'0 0.1
2018-Jun-14 16:34S 33°02' E 151°47'0 0.0
2018-Jun-14 16:13S 33°02' E 151°47'0 0.0
2018-Jun-14 15:58S 33°02' E 151°47'0 0.1
2018-Jun-14 14:37S 33°02' E 151°47'0 0.0
2018-Jun-14 14:25S 33°02' E 151°47'0 0.0
2018-Jun-14 13:55S 33°02' E 151°47'0 0.0
2018-Jun-14 13:25S 33°02' E 151°47'0 0.1
2018-Jun-14 12:40S 33°02' E 151°47'0 0.1
2018-Jun-14 11:49S 33°02' E 151°47'0 0.0
2018-Jun-14 11:25S 33°02' E 151°47'0 0.0
2018-Jun-14 10:58S 33°02' E 151°47'0 0.1
2018-Jun-14 10:19S 33°02' E 151°47'0 0.0
2018-Jun-14 08:43S 33°02' E 151°47'0 0.0
2018-Jun-14 08:13S 33°02' E 151°47'0 0.0
2018-Jun-14 07:58S 33°02' E 151°47'0 0.0
2018-Jun-13 16:04S 33°02' E 151°47'0 0.5
2018-Jun-13 15:58S 33°02' E 151°47'0 0.1
2018-Jun-13 15:28S 33°02' E 151°47'0 0.0
2018-Jun-13 14:58S 33°02' E 151°47'0 0.1
2018-Jun-13 14:28S 33°02' E 151°47'0 0.0
2018-Jun-13 13:10S 33°02' E 151°47'0 0.0
2018-Jun-13 12:58S 33°02' E 151°47'0 0.0
2018-Jun-13 12:28S 33°02' E 151°47'0 0.0
2018-Jun-13 08:46S 33°02' E 151°47'0 0.1
2018-Jun-13 08:19S 33°02' E 151°47'0 0.0
2018-Jun-13 07:52S 33°02' E 151°47'0 0.0
2018-Jun-13 02:10S 33°02' E 151°47'0 0.0
2018-Jun-13 01:46S 33°02' E 151°47'0 0.0
2018-Jun-13 01:22S 33°02' E 151°47'0 0.0
2018-Jun-13 00:16S 33°02' E 151°47'0 0.0
2018-Jun-12 23:49S 33°02' E 151°47'0 0.0
2018-Jun-12 23:28S 33°02' E 151°47'0 0.0
2018-Jun-12 22:58S 33°02' E 151°47'0 0.0
2018-Jun-12 21:58S 33°02' E 151°47'0 0.1
2018-Jun-12 21:28S 33°02' E 151°47'0 0.0
2018-Jun-12 20:58S 33°02' E 151°47'0 0.0
2018-Jun-12 20:28S 33°02' E 151°47'0 0.0
2018-Jun-12 19:58S 33°02' E 151°47'0 0.1
2018-Jun-12 19:28S 33°02' E 151°47'0 0.0
2018-Jun-12 18:58S 33°02' E 151°47'0 0.0
2018-Jun-12 18:22S 33°02' E 151°47'0 0.0
2018-Jun-12 17:58S 33°02' E 151°47'0 0.0
2018-Jun-12 17:28S 33°02' E 151°47'0 0.1
2018-Jun-12 16:58S 33°02' E 151°47'0 0.1
2018-Jun-12 16:28S 33°02' E 151°47'0 0.0
2018-Jun-12 15:58S 33°02' E 151°47'0 0.1
2018-Jun-12 15:28S 33°02' E 151°47'0 0.1
2018-Jun-12 14:58S 33°02' E 151°47'0 0.0
2018-Jun-12 14:25S 33°02' E 151°47'0 0.0
2018-Jun-12 13:55S 33°02' E 151°47'0 0.0
2018-Jun-12 13:28S 33°02' E 151°47'0 0.1
2018-Jun-12 12:58S 33°02' E 151°47'0 0.1
2018-Jun-12 12:25S 33°02' E 151°47'0 0.0
2018-Jun-12 11:58S 33°02' E 151°47'0 0.1
2018-Jun-12 11:28S 33°02' E 151°47'0 0.1
2018-Jun-12 10:28S 33°02' E 151°47'0 0.0
2018-Jun-12 06:01S 33°02' E 151°47'0 0.0
2018-Jun-12 02:28S 33°02' E 151°47'0 0.0
2018-Jun-11 23:34S 33°02' E 151°47'0 0.0
2018-Jun-11 23:07S 33°02' E 151°47'0 0.0
2018-Jun-11 22:10S 33°02' E 151°47'0 0.0
2018-Jun-11 21:58S 33°02' E 151°47'0 0.1
2018-Jun-11 21:28S 33°02' E 151°47'0 0.0
2018-Jun-11 20:55S 33°02' E 151°47'0 0.0
2018-Jun-11 20:25S 33°02' E 151°47'0 0.0
2018-Jun-11 19:55S 33°02' E 151°47'0 0.0
2018-Jun-11 19:25S 33°02' E 151°47'0 0.0
2018-Jun-11 18:55S 33°02' E 151°47'0 0.0
2018-Jun-11 18:28S 33°02' E 151°47'0 0.0
2018-Jun-11 17:40S 33°02' E 151°47'0 0.0
2018-Jun-11 17:28S 33°02' E 151°47'0 0.0
2018-Jun-11 16:58S 33°02' E 151°47'0 0.0
2018-Jun-11 16:28S 33°02' E 151°47'0 0.0
2018-Jun-11 15:58S 33°02' E 151°47'0 0.0
2018-Jun-11 15:28S 33°02' E 151°47'0 0.0
2018-Jun-11 14:55S 33°02' E 151°47'0 0.0
2018-Jun-11 07:49S 33°02' E 151°47'0 0.4
2018-Jun-11 07:18S 33°02' E 151°47'3 4.1
2018-Jun-11 06:40S 32°60' E 151°48'211.0
2018-Jun-11 06:30S 32°59' E 151°50'611.9
2018-Jun-11 06:00S 32°56' E 151°56'611.9
2018-Jun-11 05:30S 32°54' E 152°02'612.1
2018-Jun-11 05:00S 32°51' E 152°09'611.8
2018-Jun-11 04:30S 32°49' E 152°15'611.4
2018-Jun-11 04:00S 32°45' E 152°21'611.5
2018-Jun-11 03:30S 32°42' E 152°26'611.5
2018-Jun-11 03:00S 32°38' E 152°32'611.6
2018-Jun-11 02:30S 32°34' E 152°37'611.3
2018-Jun-11 01:58S 32°30' E 152°42'28111.2
2018-Jun-10 00:58S 27°55' E 153°48'612.9
2018-Jun-10 00:31S 27°49' E 153°48'713.3
2018-Jun-10 00:01S 27°43' E 153°47'  
Track history (hours):
 
Tides and Currents Weather Stations Pressure Air Temp Water Temp Dewpoint Dewpoint Depression Visibility Wind Speed Wind Dir Waves Ship Positions

Foochow

Last reported at 2018-Jun-17 02:47 UTC. Time now 2018-Jun-18 00:21 UTC.
Position S 34°04' E 151°32'.

Length 180 m; draft 9 m.

Type: Cargo ship. MMSI: 563217000.

Date/timePositionNaut miles runAvg speedWind from/ knotsBaromVisibWave heightAir tempDewpointWater temp
2018-Jun-17 02:47S 34°04' E 151°32'312.0
2018-Jun-17 02:30S 34°01' E 151°33'611.8
2018-Jun-17 02:00S 33°55' E 151°34'612.4
2018-Jun-17 01:30S 33°49' E 151°36'712.4
2018-Jun-17 00:59S 33°43' E 151°38'612.2
2018-Jun-17 00:30S 33°37' E 151°39'4012.1
2018-Jun-16 21:10S 32°58' E 151°51'210.8
2018-Jun-16 21:00S 32°56' E 151°50'3 5.1
2018-Jun-16 20:30S 32°55' E 151°47'2 0.1
2018-Jun-15 22:09S 32°53' E 151°46'0 0.8
2018-Jun-15 22:00S 32°53' E 151°46'2 4.0
2018-Jun-15 21:30S 32°55' E 151°47'3 6.7
2018-Jun-15 21:00S 32°56' E 151°51'3 5.4
2018-Jun-15 20:30S 32°59' E 151°51'2 3.0
2018-Jun-15 19:50S 33°01' E 151°49'3 0.9
2018-Jun-15 17:01S 33°02' E 151°47'0 0.0
2018-Jun-15 16:58S 33°02' E 151°47'0 0.0
2018-Jun-15 16:07S 33°02' E 151°47'0 0.0
2018-Jun-15 15:49S 33°02' E 151°47'0 0.0
2018-Jun-15 14:19S 33°02' E 151°47'0 0.0
2018-Jun-15 13:22S 33°02' E 151°47'0 0.0
2018-Jun-15 12:58S 33°02' E 151°47'0 0.0
2018-Jun-15 08:49S 33°02' E 151°47'0 0.0
2018-Jun-15 07:31S 33°02' E 151°47'0 0.1
2018-Jun-15 07:25S 33°02' E 151°47'0 0.0
2018-Jun-15 06:55S 33°02' E 151°47'0 0.0
2018-Jun-15 05:55S 33°02' E 151°47'0 0.0
2018-Jun-15 05:25S 33°02' E 151°47'0 0.0
2018-Jun-15 04:55S 33°02' E 151°47'0 0.0
2018-Jun-15 04:28S 33°02' E 151°47'0 0.0
2018-Jun-14 17:34S 33°02' E 151°47'0 0.0
2018-Jun-14 17:22S 33°02' E 151°47'0 0.1
2018-Jun-14 16:34S 33°02' E 151°47'0 0.0
2018-Jun-14 16:13S 33°02' E 151°47'0 0.0
2018-Jun-14 15:58S 33°02' E 151°47'0 0.1
2018-Jun-14 14:37S 33°02' E 151°47'0 0.0
2018-Jun-14 14:25S 33°02' E 151°47'0 0.0
2018-Jun-14 13:55S 33°02' E 151°47'0 0.0
2018-Jun-14 13:25S 33°02' E 151°47'0 0.1
2018-Jun-14 12:40S 33°02' E 151°47'0 0.1
2018-Jun-14 11:49S 33°02' E 151°47'0 0.0
2018-Jun-14 11:25S 33°02' E 151°47'0 0.0
2018-Jun-14 10:58S 33°02' E 151°47'0 0.1
2018-Jun-14 10:19S 33°02' E 151°47'0 0.0
2018-Jun-14 08:43S 33°02' E 151°47'0 0.0
2018-Jun-14 08:13S 33°02' E 151°47'0 0.0
2018-Jun-14 07:58S 33°02' E 151°47'0 0.0
2018-Jun-13 16:04S 33°02' E 151°47'0 0.5
2018-Jun-13 15:58S 33°02' E 151°47'0 0.1
2018-Jun-13 15:28S 33°02' E 151°47'0 0.0
2018-Jun-13 14:58S 33°02' E 151°47'0 0.1
2018-Jun-13 14:28S 33°02' E 151°47'0 0.0
2018-Jun-13 13:10S 33°02' E 151°47'0 0.0
2018-Jun-13 12:58S 33°02' E 151°47'0 0.0
2018-Jun-13 12:28S 33°02' E 151°47'0 0.0
2018-Jun-13 08:46S 33°02' E 151°47'0 0.1
2018-Jun-13 08:19S 33°02' E 151°47'0 0.0
2018-Jun-13 07:52S 33°02' E 151°47'0 0.0
2018-Jun-13 02:10S 33°02' E 151°47'0 0.0
2018-Jun-13 01:46S 33°02' E 151°47'0 0.0
2018-Jun-13 01:22S 33°02' E 151°47'0 0.0
2018-Jun-13 00:16S 33°02' E 151°47'0 0.0
2018-Jun-12 23:49S 33°02' E 151°47'0 0.0
2018-Jun-12 23:28S 33°02' E 151°47'0 0.0
2018-Jun-12 22:58S 33°02' E 151°47'0 0.0
2018-Jun-12 21:58S 33°02' E 151°47'0 0.1
2018-Jun-12 21:28S 33°02' E 151°47'0 0.0
2018-Jun-12 20:58S 33°02' E 151°47'0 0.0
2018-Jun-12 20:28S 33°02' E 151°47'0 0.0
2018-Jun-12 19:58S 33°02' E 151°47'0 0.1
2018-Jun-12 19:28S 33°02' E 151°47'0 0.0
2018-Jun-12 18:58S 33°02' E 151°47'0 0.0
2018-Jun-12 18:22S 33°02' E 151°47'0 0.0
2018-Jun-12 17:58S 33°02' E 151°47'0 0.0
2018-Jun-12 17:28S 33°02' E 151°47'0 0.1
2018-Jun-12 16:58S 33°02' E 151°47'0 0.1
2018-Jun-12 16:28S 33°02' E 151°47'0 0.0
2018-Jun-12 15:58S 33°02' E 151°47'0 0.1
2018-Jun-12 15:28S 33°02' E 151°47'0 0.1
2018-Jun-12 14:58S 33°02' E 151°47'0 0.0
2018-Jun-12 14:25S 33°02' E 151°47'0 0.0
2018-Jun-12 13:55S 33°02' E 151°47'0 0.0
2018-Jun-12 13:28S 33°02' E 151°47'0 0.1
2018-Jun-12 12:58S 33°02' E 151°47'0 0.1
2018-Jun-12 12:25S 33°02' E 151°47'0 0.0
2018-Jun-12 11:58S 33°02' E 151°47'0 0.1
2018-Jun-12 11:28S 33°02' E 151°47'0 0.1
2018-Jun-12 10:28S 33°02' E 151°47'0 0.0
2018-Jun-12 06:01S 33°02' E 151°47'0 0.0
2018-Jun-12 02:28S 33°02' E 151°47'0 0.0
2018-Jun-11 23:34S 33°02' E 151°47'0 0.0
2018-Jun-11 23:07S 33°02' E 151°47'0 0.0
2018-Jun-11 22:10S 33°02' E 151°47'0 0.0
2018-Jun-11 21:58S 33°02' E 151°47'0 0.1
2018-Jun-11 21:28S 33°02' E 151°47'0 0.0
2018-Jun-11 20:55S 33°02' E 151°47'0 0.0
2018-Jun-11 20:25S 33°02' E 151°47'0 0.0
2018-Jun-11 19:55S 33°02' E 151°47'0 0.0
2018-Jun-11 19:25S 33°02' E 151°47'0 0.0
2018-Jun-11 18:55S 33°02' E 151°47'0 0.0
2018-Jun-11 18:28S 33°02' E 151°47'0 0.0
2018-Jun-11 17:40S 33°02' E 151°47'0 0.0
2018-Jun-11 17:28S 33°02' E 151°47'0 0.0
2018-Jun-11 16:58S 33°02' E 151°47'0 0.0
2018-Jun-11 16:28S 33°02' E 151°47'0 0.0
2018-Jun-11 15:58S 33°02' E 151°47'0 0.0
2018-Jun-11 15:28S 33°02' E 151°47'0 0.0
2018-Jun-11 14:55S 33°02' E 151°47'0 0.0
2018-Jun-11 07:49S 33°02' E 151°47'0 0.4
2018-Jun-11 07:18S 33°02' E 151°47'3 4.1
2018-Jun-11 06:40S 32°60' E 151°48'211.0
2018-Jun-11 06:30S 32°59' E 151°50'611.9
2018-Jun-11 06:00S 32°56' E 151°56'611.9
2018-Jun-11 05:30S 32°54' E 152°02'612.1
2018-Jun-11 05:00S 32°51' E 152°09'611.8
2018-Jun-11 04:30S 32°49' E 152°15'611.4
2018-Jun-11 04:00S 32°45' E 152°21'611.5
2018-Jun-11 03:30S 32°42' E 152°26'611.5
2018-Jun-11 03:00S 32°38' E 152°32'611.6
2018-Jun-11 02:30S 32°34' E 152°37'611.3
2018-Jun-11 01:58S 32°30' E 152°42'28111.2
2018-Jun-10 00:58S 27°55' E 153°48'612.9
2018-Jun-10 00:31S 27°49' E 153°48'713.3
2018-Jun-10 00:01S 27°43' E 153°47'  

Dump ship's entire track history